Towaco, NJ (07082)

10:38 AM EST on December 28, 2014 (GMT -0500)
montville | Change Station
CLOSE
Current Station
Personal Weather Station
Location: Montville, NJ
Elevation: 325 ft
Nearby Weather Stations

Elev 325 ft 40.91 °N, 74.35 °W | Updated 9 seconds ago

Overcast
Overcast
44.4 °F
Feels Like 44 °F
N
0.9
Wind Variable Wind from WNW
Gusts 2.5 mph

Today
High -- | Low -- °F
--% Chance of Precip.
Yesterday
High -- | Low -- °F
Precip. -- in
7:21 AM 4:36 PM
Waxing Crescent, 49% visible
Pressure 29.95 in
Visibility 5.0 miles
Clouds Overcast 9500 ft
Windchill 44 °F
Dew Point 44 °F
Humidity 97%
Rainfall 0.02 in
Snow Depth Not available.
UV 1.0 out of 12
Pollen .10 out of 12
Air Quality Not available.
Flu Activity Not available.
METAR KCDW 281453Z AUTO VRB04KT 5SM BR OVC095 06/05 A2993 RMK AO2 RAE05 SLP141 P0000 60003 T00610050 53003 TSNO

More Conditions Fewer Conditions

Pressure 29.95 in
Visibility 5.0 miles
Clouds Overcast 9500 ft
Windchill 44 °F
Dew Point 44 °F
Humidity 97%
Rainfall 0.02 in
Snow Depth Not available.
UV 1.0 out of 12
Pollen .10 out of 12
Air Quality Not available.
Flu Activity Not available.
METAR KCDW 281453Z AUTO VRB04KT 5SM BR OVC095 06/05 A2993 RMK AO2 RAE05 SLP141 P0000 60003 T00610050 53003 TSNO

More Conditions Fewer Conditions

10-Day Weather Forecast

Almanac

Astronomy

Dec. 28, 2014 Rise Set
Actual Time
Civil Twilight
Nautical Twilight
Astronomical Twilight
Moon
Length of Visible Light
Length of Day
Tomorrow will be .
, % of the Moon is Illuminated

Today's Extremes

State Highs State Lows

Community

WunderPhotos

Upload Photos

1,781,307 photos uploaded!

WunderBlogs® & News

Nearby

Air Quality

  Air Quality AQ Index Pollutant
Not available.

Snow Depth

Station Depth Elevation

Earthquake Activity

City Distance Mag. Time & Date
Minimum magnitude displayed is 2.5.

Coastal Water Temperatures

Place Temperature

Nearby Weather Stations